Time;durP1;ratioP1;P1;durP2;ratioP2;P2;SDS_P1;SDS_P2;PMS_P1;PMS_P2;Temp;Humidity;BMP_temperature;BMP_pressure;BME280_temperature;BME280_humidity;BME280_pressure;Samples;Min_cycle;Max_cycle;Signal;HPM_P1;HPM_P2
2022/08/22 00:00:14;;;;;;;20.25;12.20;;;;;;;24.06;89.95;98954.81;5040255;28;20097;-72
2022/08/22 00:03:01;;;;;;;21.90;11.00;;;;;;;24.07;89.43;98942.91;5035693;28;20040;-72
2022/08/22 00:05:56;;;;;;;21.17;11.20;;;;;;;24.09;90.23;98935.34;5025781;28;20037;-72
2022/08/22 00:08:44;;;;;;;;;;;;;;;24.06;90.15;98933.19;4988031;28;20085;-72
2022/08/22 00:11:28;;;;;;;19.20;11.57;;;;;;;23.80;90.72;98932.31;5023849;28;19928;-72
2022/08/22 00:14:06;;;;;;;21.75;11.07;;;;;;;23.88;90.57;98950.69;5023761;28;20029;-72
2022/08/22 00:16:57;;;;;;;20.42;10.98;;;;;;;23.88;90.51;98958.81;5023387;28;20049;-72
2022/08/22 00:19:41;;;;;;;17.23;9.98;;;;;;;23.89;90.72;98968.56;5023487;28;20049;-72
2022/08/22 00:22:22;;;;;;;;;;;;;;;23.94;90.56;98965.06;5022224;28;20033;-72
2022/08/22 00:24:54;;;;;;;20.38;11.18;;;;;;;23.83;90.21;98972.31;5021527;28;20115;-72
2022/08/22 00:27:34;;;;;;;16.67;11.30;;;;;;;23.86;90.09;98969.09;5021038;28;20275;-72
2022/08/22 00:30:12;;;;;;;19.20;11.30;;;;;;;23.88;89.57;98972.34;5020546;28;20068;-72
2022/08/22 00:32:44;;;;;;;18.95;11.35;;;;;;;23.91;89.90;98975.59;5024600;28;20333;-72
2022/08/22 00:35:46;;;;;;;17.50;10.25;;;;;;;23.97;89.64;98969.94;5022785;28;20032;-72
2022/08/22 00:38:35;;;;;;;23.20;10.27;;;;;;;23.88;90.62;98983.16;4999126;28;20333;-72
2022/08/22 00:41:27;;;;;;;19.98;10.50;;;;;;;23.86;90.16;98989.91;5019810;28;20678;-72
2022/08/22 00:44:29;;;;;;;18.63;10.32;;;;;;;23.75;90.56;98980.94;5020390;28;20042;-72
2022/08/22 00:47:01;;;;;;;20.02;11.25;;;;;;;23.72;90.39;98983.38;5021903;28;20053;-72
2022/08/22 00:49:29;;;;;;;18.35;10.02;;;;;;;23.71;91.03;98974.47;5022445;28;20057;-72
2022/08/22 00:52:24;;;;;;;20.27;10.90;;;;;;;23.75;91.27;98980.94;5023647;28;20107;-72
2022/08/22 00:55:38;;;;;;;21.23;10.80;;;;;;;23.75;90.98;98972.84;5022474;28;20043;-72
2022/08/22 00:58:22;;;;;;;16.55;9.65;;;;;;;23.70;89.80;98963.91;5007246;28;20056;-72
2022/08/22 01:00:55;;;;;;;20.45;11.63;;;;;;;23.56;90.46;98966.31;5023425;28;20038;-72
2022/08/22 01:03:39;;;;;;;19.52;11.35;;;;;;;23.53;90.22;98969.50;5028880;28;20189;-72
2022/08/22 01:06:23;;;;;;;16.77;10.88;;;;;;;23.46;90.61;98964.34;5040479;28;20029;-72
2022/08/22 01:09:10;;;;;;;18.45;10.98;;;;;;;23.51;90.58;98969.78;5042992;28;20038;-72
2022/08/22 01:12:23;;;;;;;15.20;9.80;;;;;;;23.59;90.17;98960.38;5044894;28;20029;-72
2022/08/22 01:14:57;;;;;;;20.65;9.93;;;;;;;23.61;88.69;98952.00;5044565;28;20096;-72
2022/08/22 01:17:43;;;;;;;19.30;9.15;;;;;;;23.42;89.30;98949.75;5038921;28;20108;-72
2022/08/22 01:20:14;;;;;;;15.63;9.27;;;;;;;23.52;88.93;98959.78;5041097;28;20041;-72
2022/08/22 01:22:54;;;;;;;20.23;9.32;;;;;;;23.60;87.51;98966.59;5044730;28;20029;-72
2022/08/22 01:25:35;;;;;;;12.80;9.40;;;;;;;23.63;87.36;98968.75;5044590;28;20040;-72
2022/08/22 01:28:30;;;;;;;15.38;8.98;;;;;;;23.49;87.96;98971.94;5044686;28;20104;-72
2022/08/22 01:31:29;;;;;;;12.07;9.38;;;;;;;23.60;87.39;98972.00;5044654;28;20378;-72
2022/08/22 01:34:00;;;;;;;19.38;9.00;;;;;;;23.65;86.92;98972.81;5044862;28;20041;-72
2022/08/22 01:37:06;;;;;;;21.55;10.38;;;;;;;23.71;87.12;98962.84;5044378;28;20323;-72
2022/08/22 01:39:46;;;;;;;15.25;9.52;;;;;;;23.64;86.87;98962.28;5044357;28;20076;-72
2022/08/22 01:42:40;;;;;;;16.65;9.45;;;;;;;23.63;87.43;98969.56;5040890;28;20021;-72
2022/08/22 01:45:33;;;;;;;21.83;10.23;;;;;;;23.62;87.71;98962.53;5043826;28;20056;-72
2022/08/22 01:48:32;;;;;;;14.80;9.82;;;;;;;23.62;87.55;98959.84;5040762;28;20463;-73
2022/08/22 01:51:16;;;;;;;15.00;9.98;;;;;;;23.53;87.24;98967.63;5038368;28;20242;-72
2022/08/22 01:53:46;;;;;;;16.02;9.90;;;;;;;23.43;87.69;98961.38;5044262;28;20048;-72
2022/08/22 01:56:17;;;;;;;16.95;9.93;;;;;;;23.53;86.77;98969.50;5004978;28;20034;-72
2022/08/22 01:58:56;;;;;;;17.25;9.68;;;;;;;23.56;86.39;98969.00;4986604;28;20088;-72
2022/08/22 02:01:40;;;;;;;16.10;9.40;;;;;;;23.49;86.89;98966.53;4986193;28;20038;-72
2022/08/22 02:04:40;;;;;;;15.32;10.00;;;;;;;23.52;86.83;98976.81;4985737;28;20035;-72
2022/08/22 02:07:43;;;;;;;16.27;9.30;;;;;;;23.40;87.39;98976.22;5003339;28;20065;-72
2022/08/22 02:10:18;;;;;;;12.95;9.35;;;;;;;23.18;88.13;98970.16;4970354;28;20047;-72
2022/08/22 02:12:55;;;;;;;21.05;10.00;;;;;;;23.33;88.09;98985.63;4982092;28;20042;-72
2022/08/22 02:15:39;;;;;;;14.35;9.65;;;;;;;23.38;88.00;98982.97;4983899;28;20074;-72
2022/08/22 02:18:05;;;;;;;18.15;10.10;;;;;;;23.40;87.79;98978.91;4986159;28;20037;-72
2022/08/22 02:20:51;;;;;;;15.02;9.80;;;;;;;23.42;87.59;98970.53;4985308;28;20038;-72
2022/08/22 02:23:36;;;;;;;14.77;10.00;;;;;;;23.38;87.67;98972.97;4985093;28;20039;-72
2022/08/22 02:26:01;;;;;;;22.90;10.30;;;;;;;23.41;87.03;98971.63;4983422;28;20053;-72
2022/08/22 02:28:51;;;;;;;20.33;10.45;;;;;;;23.34;87.13;98961.06;4984207;28;20027;-73
2022/08/22 02:31:24;;;;;;;19.17;9.98;;;;;;;23.39;86.77;98962.97;4985922;28;20043;-73
2022/08/22 02:33:57;;;;;;;15.30;10.18;;;;;;;23.44;86.92;98977.31;4985307;28;20027;-73
2022/08/22 02:36:39;;;;;;;19.77;10.20;;;;;;;23.42;86.99;98978.66;4985643;28;20081;-72
2022/08/22 02:39:20;;;;;;;16.88;9.20;;;;;;;23.43;87.18;98983.78;4984253;28;20197;-72
2022/08/22 02:41:48;;;;;;;18.45;10.02;;;;;;;23.46;86.93;98980.56;4985667;28;20042;-72
2022/08/22 02:44:26;;;;;;;17.33;10.00;;;;;;;23.49;86.84;98987.31;4983470;28;20232;-72
2022/08/22 02:46:52;;;;;;;13.70;9.55;;;;;;;23.43;86.69;98986.50;4983122;28;20320;-72
2022/08/22 02:50:11;;;;;;;17.05;9.85;;;;;;;23.53;86.41;98994.63;4983810;28;20057;-72
2022/08/22 02:52:48;;;;;;;14.80;9.73;;;;;;;23.52;85.94;98979.50;4961818;29;20051;-72
2022/08/22 02:55:35;;;;;;;16.27;9.70;;;;;;;23.48;86.34;98994.63;4994325;28;20422;-72
2022/08/22 02:58:07;;;;;;;16.65;9.27;;;;;;;23.46;86.11;98987.84;5024307;28;20475;-72
2022/08/22 03:01:08;;;;;;;27.80;10.00;;;;;;;23.36;86.75;98983.22;5024648;28;20033;-72
2022/08/22 03:03:39;;;;;;;14.98;9.52;;;;;;;23.28;87.37;98991.00;5026808;28;20033;-72
2022/08/22 03:06:27;;;;;;;19.20;9.80;;;;;;;23.22;87.71;98996.41;5024327;28;20057;-72
2022/08/22 03:09:14;;;;;;;21.90;9.95;;;;;;;23.44;87.12;98995.41;5024643;28;20034;-72
2022/08/22 03:11:45;;;;;;;19.00;9.65;;;;;;;23.33;87.71;98991.84;5024452;28;20033;-72
2022/08/22 03:14:17;;;;;;;18.48;9.82;;;;;;;23.24;88.19;98998.84;5023653;28;20113;-72
2022/08/22 03:17:09;;;;;;;15.13;9.95;;;;;;;23.12;90.65;99017.13;5022528;28;20042;-72
2022/08/22 03:19:56;;;;;;;22.80;10.25;;;;;;;22.93;92.31;99011.34;5023488;28;20603;-72
2022/08/22 03:22:32;;;;;;;21.55;11.40;;;;;;;22.78;92.79;99009.28;5027353;28;20038;-72
2022/08/22 03:25:19;;;;;;;21.20;10.80;;;;;;;22.76;93.47;99006.03;5021800;28;20033;-72
2022/08/22 03:27:58;;;;;;;17.67;10.80;;;;;;;22.70;93.17;99003.56;5022775;28;20346;-72
2022/08/22 03:30:42;;;;;;;20.95;11.68;;;;;;;22.64;93.28;99000.00;5023757;28;20030;-72
2022/08/22 03:33:21;;;;;;;18.30;10.98;;;;;;;22.58;94.44;99009.16;5022213;28;20037;-72
2022/08/22 03:35:46;;;;;;;20.20;11.48;;;;;;;22.67;94.42;99007.59;5023811;28;20036;-72
2022/08/22 03:38:18;;;;;;;20.33;11.15;;;;;;;22.63;94.15;99006.47;5023430;28;20025;-72
2022/08/22 03:40:56;;;;;;;23.65;11.77;;;;;;;22.45;94.75;99021.19;5023899;28;20029;-72
2022/08/22 03:44:04;;;;;;;24.27;12.40;;;;;;;22.33;95.91;99011.63;5021036;28;20350;-72
2022/08/22 03:46:51;;;;;;;22.80;11.20;;;;;;;22.17;96.88;99010.66;5021821;28;20050;-72
2022/08/22 03:49:54;;;;;;;22.90;12.85;;;;;;;22.26;97.02;99009.94;5022230;28;20509;-72
2022/08/22 03:52:25;;;;;;;23.55;12.43;;;;;;;22.30;96.28;99008.38;5022310;28;20108;-72
2022/08/22 03:55:21;;;;;;;22.08;12.05;;;;;;;22.46;95.68;99005.81;5023421;28;20037;-72
2022/08/22 03:58:01;;;;;;;19.58;12.13;;;;;;;22.52;94.85;99008.28;5021045;28;20025;-72
2022/08/22 04:00:47;;;;;;;25.30;11.70;;;;;;;22.50;95.05;99013.13;5021970;28;20046;-72
2022/08/22 04:03:15;;;;;;;21.02;12.50;;;;;;;22.55;95.11;99006.97;5023018;28;20034;-72
2022/08/22 04:05:49;;;;;;;22.25;12.00;;;;;;;22.67;94.40;99013.00;5022387;28;20041;-72
2022/08/22 04:08:24;;;;;;;;;;;;;;;22.89;92.82;99008.34;5022619;28;20197;-72
2022/08/22 04:10:55;;;;;;;20.23;11.90;;;;;;;22.92;92.39;99001.63;5040800;28;19913;-72
2022/08/22 04:14:00;;;;;;;19.10;11.90;;;;;;;22.87;92.74;99002.38;5018307;28;20231;-72
2022/08/22 04:16:40;;;;;;;21.13;12.20;;;;;;;22.84;92.78;98999.38;5001479;28;20469;-72
2022/08/22 04:19:41;;;;;;;19.98;12.30;;;;;;;22.75;92.13;99011.69;5024672;28;20075;-72
2022/08/22 04:22:24;;;;;;;21.73;12.85;;;;;;;22.43;93.71;99014.41;4998581;28;20046;-72
2022/08/22 04:25:07;;;;;;;22.23;13.02;;;;;;;22.36;95.54;99011.13;5020119;28;20052;-72
2022/08/22 04:28:01;;;;;;;29.42;14.45;;;;;;;22.34;96.87;99027.56;5021801;28;20044;-72
2022/08/22 04:30:30;;;;;;;22.77;14.00;;;;;;;22.48;96.08;99030.66;5020522;28;20057;-72
2022/08/22 04:33:25;;;;;;;24.38;14.32;;;;;;;22.69;95.09;99023.53;5028172;28;20630;-73
2022/08/22 04:35:59;;;;;;;28.35;13.75;;;;;;;22.69;94.86;99027.03;5040917;28;20231;-72
2022/08/22 04:39:10;;;;;;;19.90;14.20;;;;;;;22.78;94.86;99027.38;5028942;28;20034;-72
2022/08/22 04:41:58;;;;;;;24.20;14.20;;;;;;;22.88;94.04;99025.59;5002627;28;20096;-72
2022/08/22 04:44:34;;;;;;;23.17;14.52;;;;;;;22.95;93.82;99025.41;4998955;28;20340;-72
2022/08/22 04:47:04;;;;;;;28.88;15.40;;;;;;;22.96;93.50;99031.59;5016230;28;20255;-72
2022/08/22 04:49:40;;;;;;;25.17;15.63;;;;;;;23.12;92.32;99020.66;5029444;28;20029;-72
2022/08/22 04:52:29;;;;;;;25.23;15.40;;;;;;;23.36;91.44;99031.03;5025204;28;20030;-72
2022/08/22 04:54:57;;;;;;;30.45;15.75;;;;;;;23.56;90.13;99039.25;5025651;28;20045;-72
2022/08/22 04:57:35;;;;;;;30.35;15.25;;;;;;;23.60;88.40;99032.25;5026088;28;20385;-72
2022/08/22 05:00:06;;;;;;;22.48;15.70;;;;;;;23.82;87.47;99053.69;5023019;28;20105;-72
2022/08/22 05:02:36;;;;;;;27.27;14.90;;;;;;;23.78;87.49;99048.00;5006782;28;20025;-72
2022/08/22 05:05:11;;;;;;;25.77;14.82;;;;;;;23.88;87.52;99056.16;5026565;28;20033;-72
2022/08/22 05:07:42;;;;;;;24.75;14.70;;;;;;;23.94;86.84;99061.59;5026969;28;20163;-72
2022/08/22 05:10:18;;;;;;;23.65;15.75;;;;;;;23.76;88.36;99060.97;5026639;28;20062;-72
2022/08/22 05:12:56;;;;;;;30.08;15.20;;;;;;;23.68;89.25;99063.38;5025514;28;20334;-72
2022/08/22 05:15:32;;;;;;;24.90;14.15;;;;;;;23.67;87.43;99064.44;5023588;28;20060;-72
2022/08/22 05:18:05;;;;;;;22.20;14.20;;;;;;;23.84;87.25;99073.16;5024971;28;20025;-72
2022/08/22 05:20:33;;;;;;;24.85;13.52;;;;;;;24.10;86.58;99069.50;5007871;28;20181;-72
2022/08/22 05:23:07;;;;;;;21.90;12.57;;;;;;;24.31;84.41;99067.69;5023752;28;20364;-72
2022/08/22 05:25:36;;;;;;;23.17;12.07;;;;;;;24.31;83.52;99069.56;5024736;28;20038;-72
2022/08/22 05:28:14;;;;;;;21.75;12.32;;;;;;;24.34;82.28;99069.03;5025766;28;20037;-72
2022/08/22 05:30:44;;;;;;;19.30;12.15;;;;;;;24.37;82.46;99077.44;5025765;28;20045;-72
2022/08/22 05:33:51;;;;;;;20.02;12.23;;;;;;;24.51;82.16;99081.22;5025153;28;20026;-72
2022/08/22 05:36:24;;;;;;;26.42;13.27;;;;;;;24.60;81.95;99067.97;4990223;28;20143;-72
2022/08/22 05:39:01;;;;;;;21.67;13.05;;;;;;;24.51;82.79;99070.41;5024316;28;20041;-72
2022/08/22 05:41:31;;;;;;;20.50;12.20;;;;;;;24.87;80.61;99072.31;5019830;28;20219;-72
2022/08/22 05:43:58;;;;;;;18.65;11.38;;;;;;;24.88;79.86;99082.88;5025290;28;20089;-72
2022/08/22 05:46:42;;;;;;;27.25;12.82;;;;;;;24.93;78.89;99088.28;5025883;28;20064;-72
2022/08/22 05:49:19;;;;;;;24.02;11.57;;;;;;;24.88;79.44;99091.00;5025073;28;20042;-72
2022/08/22 05:52:05;;;;;;;15.20;11.80;;;;;;;24.91;78.79;99085.03;5023359;28;20040;-72
2022/08/22 05:54:36;;;;;;;22.60;12.32;;;;;;;24.95;78.23;99088.00;5023842;28;20053;-73
2022/08/22 05:57:18;;;;;;;22.90;13.25;;;;;;;24.86;78.84;99089.63;5006413;28;20227;-72
2022/08/22 05:59:51;;;;;;;21.45;11.50;;;;;;;24.86;78.55;99086.94;5026808;28;20037;-72
2022/08/22 06:02:28;;;;;;;26.70;12.57;;;;;;;24.87;79.41;99093.97;5026744;28;20072;-72
2022/08/22 06:05:00;;;;;;;19.90;12.65;;;;;;;24.78;79.83;99096.41;5025497;28;20315;-73
2022/08/22 06:07:44;;;;;;;21.42;13.40;;;;;;;25.04;79.27;99098.09;5025969;28;20052;-72
2022/08/22 06:10:27;;;;;;;23.80;13.00;;;;;;;25.08;78.39;99085.63;5024981;28;20227;-72
2022/08/22 06:13:19;;;;;;;23.88;13.23;;;;;;;25.24;78.59;99089.13;5024699;28;20065;-73
2022/08/22 06:15:49;;;;;;;26.27;12.93;;;;;;;25.56;76.75;99088.78;5024345;28;20042;-73
2022/08/22 06:18:20;;;;;;;22.25;13.38;;;;;;;25.50;76.79;99086.34;5024518;28;20037;-72
2022/08/22 06:20:52;;;;;;;29.25;13.40;;;;;;;25.43;76.79;99084.75;5022567;28;20026;-72
2022/08/22 06:23:38;;;;;;;23.30;11.98;;;;;;;25.35;76.72;99085.31;5024027;28;20075;-72
2022/08/22 06:26:05;;;;;;;20.15;12.27;;;;;;;25.30;77.60;99093.44;5024140;28;20041;-72
2022/08/22 06:28:40;;;;;;;23.40;11.13;;;;;;;25.75;76.46;99097.97;5023804;28;20319;-73
2022/08/22 06:31:16;;;;;;;21.58;12.07;;;;;;;26.12;72.85;99113.03;5024202;28;20040;-73
2022/08/22 06:33:44;;;;;;;18.63;9.90;;;;;;;26.50;71.90;99097.91;5028127;28;20488;-72
2022/08/22 06:36:30;;;;;;;17.48;8.40;;;;;;;26.81;69.05;99106.63;5026548;28;20347;-73
2022/08/22 06:39:09;;;;;;;14.40;9.50;;;;;;;27.01;68.35;99095.63;5023844;28;20052;-73
2022/08/22 06:41:55;;;;;;;18.40;9.20;;;;;;;27.21;67.75;99096.56;5031936;28;20033;-73
2022/08/22 06:44:26;;;;;;;16.05;9.73;;;;;;;27.37;66.47;99092.59;5037715;28;20340;-73
2022/08/22 06:46:56;;;;;;;12.45;9.15;;;;;;;27.12;65.48;99101.81;5032737;28;20033;-73
2022/08/22 06:49:24;;;;;;;19.88;8.43;;;;;;;27.28;66.31;99097.03;5035575;28;20041;-72
2022/08/22 06:51:50;;;;;;;13.52;8.40;;;;;;;27.38;64.54;99101.56;5037429;28;20116;-73
2022/08/22 06:54:20;;;;;;;12.95;8.15;;;;;;;27.14;65.86;99094.19;5023683;28;20199;-73
2022/08/22 06:56:49;;;;;;;12.82;8.35;;;;;;;27.08;65.21;99097.22;5032769;28;20254;-73
2022/08/22 06:59:19;;;;;;;14.65;8.25;;;;;;;27.38;65.22;99099.66;5035534;28;20025;-73
2022/08/22 07:01:45;;;;;;;13.80;8.27;;;;;;;27.81;63.04;99095.09;5017454;28;20389;-73
2022/08/22 07:04:10;;;;;;;14.02;8.65;;;;;;;28.01;62.10;99102.22;5032511;28;20029;-73
2022/08/22 07:06:41;;;;;;;13.38;8.30;;;;;;;28.01;62.64;99085.88;5034070;28;20029;-73
2022/08/22 07:09:15;;;;;;;13.35;8.25;;;;;;;28.68;59.87;99102.13;5034545;28;20029;-73
2022/08/22 07:11:41;;;;;;;11.82;7.65;;;;;;;28.64;59.59;99099.19;5031864;28;20250;-73
2022/08/22 07:14:14;;;;;;;13.00;7.80;;;;;;;28.91;59.18;99099.31;5037127;28;20053;-73
2022/08/22 07:16:41;;;;;;;18.10;7.88;;;;;;;29.14;57.76;99099.50;5035903;28;20041;-73
2022/08/22 07:19:11;;;;;;;13.45;7.93;;;;;;;29.17;57.10;99097.00;5033398;28;20108;-73
2022/08/22 07:21:46;;;;;;;15.55;7.07;;;;;;;28.49;56.67;98993.22;5033593;28;20033;-73
2022/08/22 07:24:20;;;;;;;14.35;8.63;;;;;;;29.01;58.26;99100.25;5033454;28;20381;-73
2022/08/22 07:27:23;;;;;;;12.60;7.53;;;;;;;29.06;58.22;99094.72;5031886;28;20733;-73
2022/08/22 07:30:14;;;;;;;13.85;8.10;;;;;;;29.45;56.91;99088.88;5034055;28;20030;-73
2022/08/22 07:33:02;;;;;;;13.23;8.48;;;;;;;29.31;56.88;99097.03;5029294;28;20052;-73
2022/08/22 07:35:35;;;;;;;14.15;7.80;;;;;;;29.52;55.97;99092.03;5032969;28;20045;-73
2022/08/22 07:38:21;;;;;;;15.82;7.93;;;;;;;29.48;56.11;99091.81;5030409;28;20048;-73
2022/08/22 07:41:15;;;;;;;14.13;8.20;;;;;;;29.74;54.10;99091.31;5029666;28;20033;-73
2022/08/22 07:43:50;;;;;;;17.00;7.45;;;;;;;29.74;52.65;99086.66;5035181;28;20076;-73
2022/08/22 07:46:36;;;;;;;15.52;7.70;;;;;;;30.04;55.19;99095.34;5036769;28;20073;-73
2022/08/22 07:49:16;;;;;;;14.25;7.63;;;;;;;29.96;53.03;99087.84;5034491;28;20266;-73
2022/08/22 07:51:46;;;;;;;13.02;7.93;;;;;;;30.22;53.82;99099.09;5036893;28;20385;-73
2022/08/22 07:54:18;;;;;;;16.30;8.73;;;;;;;29.92;53.85;99100.50;5032142;28;20104;-73
2022/08/22 07:57:05;;;;;;;10.40;7.95;;;;;;;30.14;52.98;99093.22;5035491;28;20049;-73
2022/08/22 07:59:35;;;;;;;12.82;8.40;;;;;;;30.34;51.82;99097.44;5034941;28;20048;-73
2022/08/22 08:02:06;;;;;;;14.45;7.63;;;;;;;30.14;52.03;99095.94;5034945;28;20224;-73
2022/08/22 08:04:34;;;;;;;14.52;8.48;;;;;;;30.22;51.41;99099.09;5032720;28;20041;-73
2022/08/22 08:07:02;;;;;;;12.82;8.15;;;;;;;30.33;50.61;99095.03;5037592;28;20100;-73
2022/08/22 08:09:31;;;;;;;15.48;9.10;;;;;;;30.14;50.67;99095.13;5019140;28;20025;-73
2022/08/22 08:12:00;;;;;;;16.67;8.70;;;;;;;30.25;51.33;99091.09;5032631;28;20060;-73
2022/08/22 08:14:27;;;;;;;19.50;10.75;;;;;;;30.18;52.20;99086.06;5032944;28;20335;-73
2022/08/22 08:17:21;;;;;;;15.50;8.90;;;;;;;30.56;50.50;99082.19;5019148;28;20052;-73
2022/08/22 08:19:49;;;;;;;10.55;8.40;;;;;;;30.59;49.54;99087.06;5032740;28;20042;-73
2022/08/22 08:22:20;;;;;;;15.77;9.52;;;;;;;30.75;48.83;99089.13;5034010;28;20067;-73
2022/08/22 08:24:47;;;;;;;14.82;9.85;;;;;;;30.60;49.51;99086.75;5034088;28;20350;-73
2022/08/22 08:30:08;;;;;;;22.25;12.40;;;;;;;30.36;51.29;99078.03;5031896;28;20032;-73
2022/08/22 08:32:36;;;;;;;20.38;11.20;;;;;;;30.11;50.97;99076.63;5033317;28;20047;-73
2022/08/22 08:35:26;;;;;;;14.95;10.23;;;;;;;30.07;51.69;99075.63;5032643;28;20048;-73
2022/08/22 08:38:01;;;;;;;15.80;11.45;;;;;;;30.11;52.97;99082.91;5016468;28;20026;-73
2022/08/22 08:40:39;;;;;;;19.85;11.85;;;;;;;30.08;51.18;99077.25;5033190;28;20100;-73
2022/08/22 08:43:41;;;;;;;21.60;12.27;;;;;;;29.99;52.74;99074.41;5032879;28;20203;-73
2022/08/22 08:46:25;;;;;;;23.88;12.93;;;;;;;30.28;51.84;99067.81;5035125;28;20045;-73
2022/08/22 08:48:53;;;;;;;;;;;;;;;30.02;51.50;99075.75;5030772;28;20060;-73
2022/08/22 08:51:51;;;;;;;20.80;13.73;;;;;;;30.09;51.71;99076.13;5033337;28;19952;-73
2022/08/22 08:54:50;;;;;;;19.77;13.43;;;;;;;30.02;50.82;99067.56;5030815;28;20033;-73
2022/08/22 08:57:53;;;;;;;20.60;13.63;;;;;;;30.09;51.49;99070.69;5006845;28;20109;-73
2022/08/22 09:00:49;;;;;;;22.17;13.35;;;;;;;30.22;52.96;99066.31;4996786;28;20124;-73
2022/08/22 09:03:49;;;;;;;18.17;12.77;;;;;;;30.47;51.31;99066.53;4992361;28;20030;-73
2022/08/22 09:06:55;;;;;;;21.23;13.25;;;;;;;30.77;51.15;99064.22;4997779;28;20272;-73
2022/08/22 09:09:36;;;;;;;20.17;14.20;;;;;;;30.69;51.83;99064.97;4979261;28;20059;-73
2022/08/22 09:12:33;;;;;;;20.52;13.98;;;;;;;30.72;51.78;99061.63;4979602;28;20058;-73
2022/08/22 09:15:13;;;;;;;22.92;14.63;;;;;;;30.65;51.99;99055.78;4994920;28;20065;-73
2022/08/22 09:17:51;;;;;;;25.63;16.02;;;;;;;30.17;51.66;99062.59;4999819;28;20046;-73
2022/08/22 09:20:31;;;;;;;22.77;17.88;;;;;;;29.72;53.39;99056.16;5000792;28;20038;-73
2022/08/22 09:23:18;;;;;;;36.05;21.05;;;;;;;29.02;56.33;99059.06;5000875;28;20034;-73
2022/08/22 09:26:03;;;;;;;30.27;21.02;;;;;;;28.97;56.32;99052.91;5001339;28;20532;-73
2022/08/22 09:28:34;;;;;;;;;;;;;;;29.03;56.24;99049.78;5005228;28;20050;-73
2022/08/22 09:31:29;;;;;;;30.88;19.27;;;;;;;28.88;56.19;99045.41;5004353;28;19918;-73
2022/08/22 09:34:07;;;;;;;31.48;21.02;;;;;;;28.36;58.01;99051.16;5004045;28;20049;-72
2022/08/22 09:36:51;;;;;;;26.63;18.70;;;;;;;28.18;58.54;99048.13;5002742;28;20042;-72
2022/08/22 09:39:29;;;;;;;30.92;20.20;;;;;;;28.43;57.66;99038.78;5004724;28;20034;-72
2022/08/22 09:42:18;;;;;;;32.50;20.80;;;;;;;28.73;57.94;99045.66;5003857;28;20031;-73
2022/08/22 09:45:40;;;;;;;29.52;20.75;;;;;;;28.91;56.53;99044.81;5003413;28;20041;-73
2022/08/22 09:48:16;;;;;;;30.20;19.83;;;;;;;29.20;55.30;99033.69;4963085;28;20288;-73
2022/08/22 09:51:04;;;;;;;27.08;16.92;;;;;;;29.04;56.38;99032.31;4962973;28;20055;-73
2022/08/22 09:53:57;;;;;;;28.10;18.98;;;;;;;28.75;56.02;99031.72;4989849;28;20042;-73
2022/08/22 09:56:48;;;;;;;25.30;17.75;;;;;;;28.69;56.73;99028.28;5033442;28;20073;-73
2022/08/22 09:59:44;;;;;;;26.17;18.05;;;;;;;28.74;58.90;99028.19;5038253;28;20029;-72
2022/08/22 10:02:13;;;;;;;27.52;18.23;;;;;;;28.75;57.73;99029.81;5034945;28;20392;-73
2022/08/22 10:05:06;;;;;;;27.50;18.30;;;;;;;28.91;56.71;99017.56;5033029;28;20208;-73
2022/08/22 10:08:11;;;;;;;26.58;16.83;;;;;;;29.00;55.74;99014.16;5033910;28;20029;-73
2022/08/22 10:11:02;;;;;;;21.73;14.23;;;;;;;29.02;56.88;99012.75;5035084;28;20049;-73
2022/08/22 10:13:49;;;;;;;21.55;15.57;;;;;;;28.80;57.53;99013.38;5040776;28;20060;-72
2022/08/22 10:16:33;;;;;;;20.38;13.52;;;;;;;28.89;57.69;99008.88;5042439;28;20097;-73
2022/08/22 10:19:06;;;;;;;21.13;14.93;;;;;;;29.07;55.92;99014.56;5041931;28;20041;-73
2022/08/22 10:22:17;;;;;;;20.25;13.73;;;;;;;29.02;55.75;99015.47;5042697;28;20327;-73
2022/08/22 10:24:46;;;;;;;19.88;14.43;;;;;;;28.83;56.38;99010.09;5027277;28;20390;-73
2022/08/22 10:27:18;;;;;;;21.95;14.55;;;;;;;29.16;57.04;99005.41;5040352;28;20025;-73
2022/08/22 10:29:52;;;;;;;20.98;14.13;;;;;;;29.11;55.02;99010.94;5041988;28;20040;-73
2022/08/22 10:32:37;;;;;;;21.92;13.93;;;;;;;29.05;57.50;99009.41;5042788;28;20033;-73
2022/08/22 10:35:12;;;;;;;19.88;14.38;;;;;;;29.11;54.79;99005.47;5042501;28;20084;-73
2022/08/22 10:37:49;;;;;;;19.63;13.15;;;;;;;29.24;54.08;99001.19;5042726;28;20040;-73
2022/08/22 10:40:24;;;;;;;21.02;14.18;;;;;;;29.27;55.40;99000.56;5042429;28;20254;-73
2022/08/22 10:43:04;;;;;;;19.25;13.43;;;;;;;29.39;55.79;99010.97;5041318;28;20061;-73
2022/08/22 10:45:34;;;;;;;18.38;13.40;;;;;;;29.32;55.17;99003.19;5042097;28;20052;-73
2022/08/22 10:48:41;;;;;;;24.65;14.70;;;;;;;29.11;56.45;99008.22;5042550;28;20327;-73
2022/08/22 10:51:43;;;;;;;21.10;15.13;;;;;;;28.78;57.85;99001.16;4980941;28;20448;-73
2022/08/22 10:54:27;;;;;;;25.88;15.77;;;;;;;28.85;58.71;99004.34;5040081;28;20022;-73
2022/08/22 10:57:26;;;;;;;24.75;15.55;;;;;;;28.56;58.17;98999.91;5041410;28;20091;-72
2022/08/22 11:00:02;;;;;;;21.90;14.15;;;;;;;28.71;57.84;99000.75;5041961;28;20037;-73
2022/08/22 11:02:39;;;;;;;19.80;14.13;;;;;;;28.69;57.61;98998.31;5041367;28;20044;-73
2022/08/22 11:05:12;;;;;;;24.92;15.35;;;;;;;28.65;59.34;99000.03;5041713;28;20036;-73
2022/08/22 11:08:15;;;;;;;20.05;14.15;;;;;;;29.01;57.49;98989.31;5042140;28;20040;-73
2022/08/22 11:11:05;;;;;;;21.35;14.60;;;;;;;29.16;55.90;98985.53;5041498;28;20044;-73
2022/08/22 11:13:42;;;;;;;22.13;13.80;;;;;;;29.37;56.55;98988.66;5041766;28;20089;-73
2022/08/22 11:16:46;;;;;;;22.30;14.30;;;;;;;29.43;56.70;98987.47;5041638;28;20104;-73
2022/08/22 11:19:33;;;;;;;19.10;14.07;;;;;;;29.49;55.57;98986.25;4992308;28;20362;-73
2022/08/22 11:22:22;;;;;;;21.30;14.35;;;;;;;29.48;55.77;98974.53;4988101;28;20030;-73
2022/08/22 11:25:16;;;;;;;19.27;13.60;;;;;;;29.72;55.85;98978.94;5020309;28;20095;-73
2022/08/22 11:27:52;;;;;;;21.90;14.55;;;;;;;29.92;55.25;98973.03;5035348;28;20038;-73
2022/08/22 11:30:35;;;;;;;18.40;12.95;;;;;;;29.95;55.77;98968.88;5031335;28;20041;-73
2022/08/22 11:33:35;;;;;;;22.80;14.18;;;;;;;30.16;54.90;98972.78;5029382;28;20092;-73
2022/08/22 11:36:19;;;;;;;20.73;13.02;;;;;;;30.03;54.34;98977.16;5034955;28;20041;-73
2022/08/22 11:38:53;;;;;;;18.27;12.60;;;;;;;30.01;53.92;98964.91;5034116;28;20021;-73
2022/08/22 11:41:24;;;;;;;18.75;12.32;;;;;;;30.15;53.12;98963.78;5032551;28;20055;-73
2022/08/22 11:43:59;;;;;;;18.83;12.18;;;;;;;30.31;53.59;98972.44;5011638;28;20109;-73
2022/08/22 11:46:34;;;;;;;18.08;13.48;;;;;;;29.96;52.03;98960.38;5031715;28;20043;-73
2022/08/22 11:49:21;;;;;;;17.10;12.80;;;;;;;29.97;52.68;98962.00;5031290;28;20037;-73
2022/08/22 11:51:59;;;;;;;17.45;12.80;;;;;;;29.92;52.50;98961.31;5033623;28;20041;-73
2022/08/22 11:54:43;;;;;;;19.35;12.60;;;;;;;30.00;52.32;98955.91;5032120;28;20077;-73
2022/08/22 11:57:12;;;;;;;;;;;;;;;29.89;51.09;98962.72;5033673;28;20053;-73
2022/08/22 11:59:43;;;;;;;18.10;12.50;;;;;;;30.02;51.10;98955.63;5030666;28;19917;-73
2022/08/22 12:02:45;;;;;;;18.35;12.75;;;;;;;30.09;51.77;98961.47;5030548;28;20124;-73
2022/08/22 12:05:21;;;;;;;20.67;13.27;;;;;;;30.00;54.01;98963.28;5031359;28;20093;-73
2022/08/22 12:08:19;;;;;;;21.90;12.82;;;;;;;29.83;55.27;98953.84;5029876;28;20072;-73
2022/08/22 12:10:57;;;;;;;16.00;12.15;;;;;;;29.82;53.61;98951.44;5035929;28;20025;-73
2022/08/22 12:13:54;;;;;;;16.88;11.93;;;;;;;29.91;54.38;98956.97;5017423;28;20431;-73
2022/08/22 12:16:37;;;;;;;17.08;11.73;;;;;;;30.02;52.90;98961.09;5032127;28;20041;-73
2022/08/22 12:19:21;;;;;;;14.73;11.75;;;;;;;29.94;51.71;98962.59;5033171;28;20100;-73
2022/08/22 12:22:08;;;;;;;19.60;11.27;;;;;;;30.05;51.56;98964.00;5034544;28;20041;-73
2022/08/22 12:24:52;;;;;;;14.80;11.10;;;;;;;30.33;50.62;98966.66;5035338;28;20040;-73
2022/08/22 12:27:21;;;;;;;19.48;12.50;;;;;;;30.32;52.78;98978.69;5033224;28;20029;-73
2022/08/22 12:29:47;;;;;;;18.52;13.63;;;;;;;30.09;53.69;98977.84;5034428;28;20361;-73